Time;durP1;ratioP1;P1;durP2;ratioP2;P2;SDS_P1;SDS_P2;PMS_P1;PMS_P2;Temp;Humidity;BMP_temperature;BMP_pressure;BME280_temperature;BME280_humidity;BME280_pressure;Samples;Min_cycle;Max_cycle;Signal;HPM_P1;HPM_P2
2023/05/10 00:00:47;;;;;;;8.30;5.65;;;;;;;-145.70;100.00;63560.63;5003456;28;20136;-60
2023/05/10 00:03:18;;;;;;;8.93;5.50;;;;;;;-145.70;100.00;63560.63;5022650;28;20508;-60
2023/05/10 00:05:46;;;;;;;9.20;5.93;;;;;;;-145.70;100.00;63560.63;4999373;28;20049;-60
2023/05/10 00:08:14;;;;;;;8.95;5.93;;;;;;;-145.70;100.00;63560.63;5034578;28;20024;-59
2023/05/10 00:10:43;;;;;;;7.68;5.18;;;;;;;-145.70;100.00;63560.63;5014493;28;20048;-60
2023/05/10 00:13:12;;;;;;;8.75;5.28;;;;;;;-145.70;100.00;63560.63;5013908;28;20034;-59
2023/05/10 00:15:39;;;;;;;7.25;4.80;;;;;;;-145.70;100.00;63560.63;5028355;28;20037;-59
2023/05/10 00:18:08;;;;;;;8.15;5.43;;;;;;;-145.70;100.00;63560.63;5000979;28;20759;-59
2023/05/10 00:20:36;;;;;;;9.10;6.28;;;;;;;-145.70;100.00;63560.63;5016996;28;20031;-59
2023/05/10 00:23:10;;;;;;;8.52;5.78;;;;;;;-145.70;100.00;63560.63;4997501;28;20057;-59
2023/05/10 00:25:38;;;;;;;8.52;5.63;;;;;;;-145.70;100.00;63560.63;4994111;28;20064;-58
2023/05/10 00:28:03;;;;;;;8.18;5.60;;;;;;;-145.70;100.00;63560.63;4993601;28;20784;-60
2023/05/10 00:30:42;;;;;;;8.75;5.75;;;;;;;-145.70;100.00;63560.63;5016904;28;20033;-59
2023/05/10 00:33:11;;;;;;;8.13;5.47;;;;;;;-145.70;100.00;63560.63;4997915;28;20403;-59
2023/05/10 00:35:37;;;;;;;7.95;5.65;;;;;;;-145.70;100.00;63560.63;5002040;28;20064;-59
2023/05/10 00:38:03;;;;;;;8.93;5.28;;;;;;;-145.70;100.00;63560.63;4993226;28;20423;-62
2023/05/10 00:40:31;;;;;;;8.93;5.10;;;;;;;-145.70;100.00;63560.63;5018534;28;20037;-59
2023/05/10 00:43:01;;;;;;;8.38;5.65;;;;;;;-145.70;100.00;63560.63;4997531;28;20472;-58
2023/05/10 00:45:30;;;;;;;7.53;4.85;;;;;;;-145.70;100.00;63560.63;4997996;28;20033;-58
2023/05/10 00:48:04;;;;;;;8.30;5.55;;;;;;;-145.70;100.00;63560.63;5016783;28;20052;-58
2023/05/10 00:50:31;;;;;;;8.48;5.45;;;;;;;-145.70;100.00;63560.63;4995283;28;20033;-59
2023/05/10 00:52:58;;;;;;;9.75;5.40;;;;;;;-145.70;100.00;63560.63;4997646;28;20044;-59
2023/05/10 00:55:23;;;;;;;7.80;5.07;;;;;;;-145.70;100.00;63560.63;4994546;28;20041;-59
2023/05/10 00:57:49;;;;;;;9.60;5.70;;;;;;;-145.70;100.00;63560.63;4988704;28;20027;-58
2023/05/10 01:00:23;;;;;;;8.50;4.93;;;;;;;-145.70;100.00;63560.63;4995660;28;20590;-59
2023/05/10 01:02:57;;;;;;;9.20;5.15;;;;;;;-145.70;100.00;63560.63;5015293;28;20037;-58
2023/05/10 01:05:27;;;;;;;8.90;4.90;;;;;;;-145.70;100.00;63560.63;4976710;28;20485;-58
2023/05/10 01:07:53;;;;;;;7.82;4.82;;;;;;;-145.70;100.00;63560.63;4985350;28;20030;-60
2023/05/10 01:10:18;;;;;;;6.88;4.45;;;;;;;-145.70;100.00;63560.63;5014669;28;20033;-59
2023/05/10 01:12:49;;;;;;;7.13;4.22;;;;;;;-145.70;100.00;63560.63;4998162;28;20025;-59
2023/05/10 01:15:18;;;;;;;6.93;3.85;;;;;;;-145.70;100.00;63560.63;5000018;28;20042;-58
2023/05/10 01:17:54;;;;;;;7.38;4.25;;;;;;;-145.70;100.00;63560.63;5013214;28;20072;-58
2023/05/10 01:20:20;;;;;;;6.40;3.90;;;;;;;-145.70;100.00;63560.63;4984110;28;20045;-57
2023/05/10 01:23:13;;;;;;;6.65;4.00;;;;;;;-145.70;100.00;63560.63;5009993;28;20038;-60
2023/05/10 01:26:16;;;;;;;6.60;3.92;;;;;;;-145.70;100.00;63560.63;5013630;28;20068;-59
2023/05/10 01:28:50;;;;;;;6.03;3.35;;;;;;;-145.70;100.00;63560.63;5005732;28;20058;-58
2023/05/10 01:31:35;;;;;;;5.97;3.75;;;;;;;-145.70;100.00;63560.63;4999197;28;20037;-59
2023/05/10 01:34:10;;;;;;;6.40;3.70;;;;;;;-145.70;100.00;63560.63;4999568;28;20029;-58
2023/05/10 01:37:06;;;;;;;6.95;4.32;;;;;;;-145.70;100.00;63560.63;4977912;28;20068;-58
2023/05/10 01:40:03;;;;;;;6.38;3.95;;;;;;;-145.70;100.00;63560.63;4994865;28;20097;-59
2023/05/10 01:42:36;;;;;;;7.07;3.90;;;;;;;-145.70;100.00;63560.63;4988379;28;20152;-59
2023/05/10 01:45:27;;;;;;;5.95;3.60;;;;;;;-145.70;100.00;63560.63;5008095;28;20140;-58
2023/05/10 01:48:11;;;;;;;7.18;3.75;;;;;;;-145.70;100.00;63560.63;5000903;28;20025;-58
2023/05/10 01:50:42;;;;;;;6.10;3.78;;;;;;;-145.70;100.00;63560.63;4974258;28;20034;-58
2023/05/10 01:53:10;;;;;;;6.00;3.53;;;;;;;-145.70;100.00;63560.63;4993783;28;20025;-59
2023/05/10 01:55:46;;;;;;;5.18;3.33;;;;;;;-145.70;100.00;63560.63;4972485;28;20161;-61
2023/05/10 01:58:19;;;;;;;6.53;3.92;;;;;;;-145.70;100.00;63560.63;4992227;28;20445;-59
2023/05/10 02:00:49;;;;;;;6.70;3.53;;;;;;;-145.70;100.00;63560.63;4996058;28;20029;-58
2023/05/10 02:03:20;;;;;;;7.05;3.70;;;;;;;-145.70;100.00;63560.63;4977223;28;20052;-60
2023/05/10 02:05:48;;;;;;;7.97;4.10;;;;;;;-145.70;100.00;63560.63;4976861;28;20056;-60
2023/05/10 02:08:17;;;;;;;6.15;3.35;;;;;;;-145.70;100.00;63560.63;4988503;28;20073;-58
2023/05/10 02:10:50;;;;;;;5.43;3.22;;;;;;;-145.70;100.00;63560.63;4995557;28;20579;-58
2023/05/10 02:13:22;;;;;;;5.90;3.50;;;;;;;-145.70;100.00;63560.63;4975467;28;20049;-59
2023/05/10 02:15:51;;;;;;;5.85;3.20;;;;;;;-145.70;100.00;63560.63;4992204;28;20049;-59
2023/05/10 02:18:24;;;;;;;6.00;3.40;;;;;;;-145.70;100.00;63560.63;4993125;28;20900;-60
2023/05/10 02:20:56;;;;;;;5.32;3.33;;;;;;;-145.70;100.00;63560.63;4990685;28;20131;-61
2023/05/10 02:23:26;;;;;;;5.03;3.00;;;;;;;-145.70;100.00;63560.63;4985364;28;20056;-58
2023/05/10 02:25:56;;;;;;;;;;;;;;;-145.70;100.00;63560.63;5008673;28;20147;-58
2023/05/10 02:28:33;;;;;;;6.20;2.47;;;;;;;-145.70;100.00;63560.63;5014431;28;20035;-60
2023/05/10 02:30:59;;;;;;;6.43;2.92;;;;;;;-145.70;100.00;63560.63;5010911;28;20028;-59
2023/05/10 02:33:25;;;;;;;6.40;3.00;;;;;;;-145.70;100.00;63560.63;5006281;28;20028;-59
2023/05/10 02:35:54;;;;;;;5.40;2.92;;;;;;;-145.70;100.00;63560.63;5014072;28;20500;-58
2023/05/10 02:38:22;;;;;;;5.13;2.85;;;;;;;-145.70;100.00;63560.63;4997194;28;20090;-60
2023/05/10 02:40:53;;;;;;;6.28;3.15;;;;;;;-145.70;100.00;63560.63;5027870;28;20025;-58
2023/05/10 02:43:23;;;;;;;5.78;3.22;;;;;;;-145.70;100.00;63560.63;5015337;28;20038;-60
2023/05/10 02:45:48;;;;;;;5.22;2.80;;;;;;;-145.70;100.00;63560.63;4993556;28;20107;-59
2023/05/10 02:48:16;;;;;;;5.18;2.97;;;;;;;-145.70;100.00;63560.63;5025569;28;20071;-61
2023/05/10 02:50:50;;;;;;;5.55;2.97;;;;;;;-145.70;100.00;63560.63;5012961;28;20061;-59
2023/05/10 02:53:24;;;;;;;5.05;2.70;;;;;;;-145.70;100.00;63560.63;5009526;28;20060;-61
2023/05/10 02:55:56;;;;;;;5.93;2.90;;;;;;;-145.70;100.00;63560.63;4998183;28;20041;-59
2023/05/10 02:58:30;;;;;;;5.13;2.80;;;;;;;-145.70;100.00;63560.63;5013727;28;20044;-60
2023/05/10 03:01:01;;;;;;;5.45;2.60;;;;;;;-145.70;100.00;63560.63;4990888;28;20057;-58
2023/05/10 03:03:29;;;;;;;5.18;2.55;;;;;;;-145.70;100.00;63560.63;5016397;28;20043;-60
2023/05/10 03:05:58;;;;;;;6.20;2.95;;;;;;;-145.70;100.00;63560.63;5010811;28;20044;-59
2023/05/10 03:08:33;;;;;;;5.15;2.60;;;;;;;-145.70;100.00;63560.63;4994180;28;20042;-59
2023/05/10 03:11:20;;;;;;;4.97;2.67;;;;;;;-145.70;100.00;63560.63;5004654;28;20867;-59
2023/05/10 03:14:01;;;;;;;5.05;2.80;;;;;;;-145.70;100.00;63560.63;5008890;28;20040;-60
2023/05/10 03:16:37;;;;;;;5.38;3.13;;;;;;;-145.70;100.00;63560.63;5042701;28;20040;-58
2023/05/10 03:19:11;;;;;;;5.85;3.05;;;;;;;-145.70;100.00;63560.63;5010428;28;20381;-58
2023/05/10 03:21:41;;;;;;;6.03;2.72;;;;;;;-145.70;100.00;63560.63;5038234;28;20529;-59
2023/05/10 03:24:08;;;;;;;5.60;2.60;;;;;;;-145.70;100.00;63560.63;4994766;28;20128;-58
2023/05/10 03:26:37;;;;;;;5.40;2.67;;;;;;;-145.70;100.00;63560.63;4980439;28;21137;-57
2023/05/10 03:29:06;;;;;;;5.80;3.35;;;;;;;-145.70;100.00;63560.63;5023902;28;20136;-58
2023/05/10 03:31:32;;;;;;;4.97;2.78;;;;;;;-145.70;100.00;63560.63;4997030;28;20096;-60
2023/05/10 03:34:04;;;;;;;7.03;2.67;;;;;;;-145.70;100.00;63560.63;5029193;28;20073;-58
2023/05/10 03:36:30;;;;;;;6.22;2.83;;;;;;;-145.70;100.00;63560.63;4998522;28;20033;-59
2023/05/10 03:38:58;;;;;;;4.85;2.35;;;;;;;-145.70;100.00;63560.63;5014331;28;20802;-58
2023/05/10 03:41:30;;;;;;;5.63;2.85;;;;;;;-145.70;100.00;63560.63;4980526;28;21328;-58
2023/05/10 03:44:01;;;;;;;4.95;2.45;;;;;;;-145.70;100.00;63560.63;5004169;28;20033;-59
2023/05/10 03:46:31;;;;;;;5.57;2.40;;;;;;;-145.70;100.00;63560.63;5014370;28;20544;-58
2023/05/10 03:49:06;;;;;;;4.55;2.30;;;;;;;-145.70;100.00;63560.63;4980706;28;20044;-60
2023/05/10 03:51:43;;;;;;;4.43;2.03;;;;;;;-145.70;100.00;63560.63;5000087;28;20028;-58
2023/05/10 03:54:11;;;;;;;4.45;2.03;;;;;;;-145.70;100.00;63560.63;4996993;28;20086;-59
2023/05/10 03:56:42;;;;;;;6.03;2.60;;;;;;;-145.70;100.00;63560.63;4982473;28;20029;-59
2023/05/10 03:59:12;;;;;;;5.30;2.55;;;;;;;-145.70;100.00;63560.63;5016142;28;20107;-58
2023/05/10 04:01:43;;;;;;;5.45;2.58;;;;;;;-145.70;100.00;63560.63;5000332;28;20029;-59
2023/05/10 04:04:14;;;;;;;5.85;2.80;;;;;;;-145.70;100.00;63560.63;4982424;28;20120;-59
2023/05/10 04:06:42;;;;;;;4.57;2.28;;;;;;;-145.70;100.00;63560.63;4995438;28;20346;-59
2023/05/10 04:09:16;;;;;;;6.75;2.85;;;;;;;-145.70;100.00;63560.63;5000609;28;20037;-59
2023/05/10 04:11:41;;;;;;;5.00;2.83;;;;;;;-145.70;100.00;63560.63;4984296;28;20030;-60
2023/05/10 04:14:15;;;;;;;7.05;2.90;;;;;;;-145.70;100.00;63560.63;5000167;28;21020;-60
2023/05/10 04:16:45;;;;;;;4.90;2.70;;;;;;;-145.70;100.00;63560.63;5013897;28;20525;-59
2023/05/10 04:19:10;;;;;;;5.32;2.40;;;;;;;-145.70;100.00;63560.63;5023864;28;20253;-61
2023/05/10 04:21:38;;;;;;;5.35;2.60;;;;;;;-145.70;100.00;63560.63;5014143;28;20025;-60
2023/05/10 04:24:12;;;;;;;7.28;2.40;;;;;;;-145.70;100.00;63560.63;4981845;28;20046;-59
2023/05/10 04:26:48;;;;;;;5.75;2.90;;;;;;;-145.70;100.00;63560.63;5033606;28;20036;-59
2023/05/10 04:29:13;;;;;;;7.28;3.80;;;;;;;-145.70;100.00;63560.63;5030062;28;20694;-60
2023/05/10 04:31:41;;;;;;;6.30;3.10;;;;;;;-145.70;100.00;63560.63;5030865;28;20029;-60
2023/05/10 04:34:06;;;;;;;5.38;3.03;;;;;;;-145.70;100.00;63560.63;5029070;28;20071;-59
2023/05/10 04:36:37;;;;;;;5.28;2.97;;;;;;;-145.70;100.00;63560.63;5019994;28;20025;-60
2023/05/10 04:39:06;;;;;;;6.97;2.85;;;;;;;-145.70;100.00;63560.63;5035835;28;20036;-58
2023/05/10 04:41:36;;;;;;;6.80;2.97;;;;;;;-145.70;100.00;63560.63;5012132;28;20048;-62
2023/05/10 04:44:04;;;;;;;5.82;2.40;;;;;;;-145.70;100.00;63560.63;5034317;28;20029;-59
2023/05/10 04:46:36;;;;;;;6.30;2.80;;;;;;;-145.70;100.00;63560.63;5011758;28;20048;-59
2023/05/10 04:49:01;;;;;;;5.05;2.60;;;;;;;-145.70;100.00;63560.63;5034026;28;20039;-60
2023/05/10 04:51:32;;;;;;;6.05;2.22;;;;;;;-145.70;100.00;63560.63;5034141;28;20160;-60
2023/05/10 04:54:03;;;;;;;7.10;3.88;;;;;;;-145.70;100.00;63560.63;5032256;28;20043;-59
2023/05/10 05:00:03;;;;;;;5.38;3.00;;;;;;;-145.70;100.00;63560.63;5027435;28;20118;-59
2023/05/10 05:02:49;;;;;;;5.97;3.60;;;;;;;-145.70;100.00;63560.63;5029861;28;20159;-60
2023/05/10 05:08:42;;;;;;;5.97;3.28;;;;;;;-145.70;100.00;63560.63;5027116;28;20110;-59
2023/05/10 05:18:06;;;;;;;6.75;3.40;;;;;;;-145.70;100.00;63560.63;5047360;28;20102;-59
2023/05/10 05:45:25;;;;;;;8.35;4.13;;;;;;;-145.70;100.00;63560.63;5024574;28;20128;-63
2023/05/10 05:47:54;;;;;;;6.00;3.17;;;;;;;-145.70;100.00;63560.63;5032191;28;20040;-58
2023/05/10 05:50:23;;;;;;;7.60;3.50;;;;;;;-145.70;100.00;63560.63;5032342;28;20071;-61
2023/05/10 05:53:00;;;;;;;7.93;4.17;;;;;;;-145.70;100.00;63560.63;5029255;28;20036;-61
2023/05/10 05:55:31;;;;;;;6.85;3.58;;;;;;;-145.70;100.00;63560.63;5026316;28;20071;-61
2023/05/10 05:57:57;;;;;;;8.55;3.85;;;;;;;-145.70;100.00;63560.63;5032430;28;20120;-61
2023/05/10 06:00:33;;;;;;;7.82;3.03;;;;;;;-145.70;100.00;63560.63;5024547;28;20545;-61
2023/05/10 06:03:04;;;;;;;6.85;3.50;;;;;;;-145.70;100.00;63560.63;5032816;28;20112;-60
2023/05/10 06:05:32;;;;;;;7.57;4.55;;;;;;;-145.70;100.00;63560.63;5027798;28;20032;-61
2023/05/10 06:08:02;;;;;;;6.05;3.60;;;;;;;-145.70;100.00;63560.63;5031843;28;20044;-61
2023/05/10 06:10:33;;;;;;;5.80;3.63;;;;;;;-145.70;100.00;63560.63;5028254;28;20036;-60
2023/05/10 06:13:01;;;;;;;6.93;3.47;;;;;;;-145.70;100.00;63560.63;5030011;28;20049;-61
2023/05/10 06:15:29;;;;;;;6.07;3.88;;;;;;;-145.70;100.00;63560.63;5018506;28;20480;-62
2023/05/10 06:17:55;;;;;;;7.18;3.83;;;;;;;-145.70;100.00;63560.63;5028481;28;20548;-60
2023/05/10 06:20:31;;;;;;;6.85;4.40;;;;;;;-145.70;100.00;63560.63;5033254;28;20039;-61
2023/05/10 06:22:58;;;;;;;7.57;4.18;;;;;;;-145.70;100.00;63560.63;5009729;28;20109;-61
2023/05/10 06:25:26;;;;;;;6.43;3.55;;;;;;;-145.70;100.00;63560.63;5007630;28;20037;-60
2023/05/10 06:27:57;;;;;;;8.20;3.90;;;;;;;-145.70;100.00;63560.63;5033294;28;20067;-60
2023/05/10 06:30:27;;;;;;;9.77;4.22;;;;;;;-145.70;100.00;63560.63;5028940;28;20029;-58
2023/05/10 06:32:55;;;;;;;7.63;4.05;;;;;;;-145.70;100.00;63560.63;5036254;28;20029;-58
2023/05/10 06:35:20;;;;;;;6.82;4.15;;;;;;;-145.70;100.00;63560.63;5031600;28;20025;-58
2023/05/10 06:37:56;;;;;;;5.90;3.20;;;;;;;-145.70;100.00;63560.63;5027474;28;20389;-58
2023/05/10 06:40:27;;;;;;;7.60;3.47;;;;;;;-145.70;100.00;63560.63;5029451;28;20485;-59
2023/05/10 06:42:52;;;;;;;6.75;3.30;;;;;;;-145.70;100.00;63560.63;5028019;28;20032;-58
2023/05/10 06:45:26;;;;;;;5.40;2.97;;;;;;;-145.70;100.00;63560.63;5023480;28;20083;-58
2023/05/10 06:47:51;;;;;;;5.85;2.97;;;;;;;-145.70;100.00;63560.63;5026174;28;20032;-58
2023/05/10 06:50:19;;;;;;;5.15;2.75;;;;;;;-145.70;100.00;63560.63;5017186;28;20093;-59
2023/05/10 06:52:51;;;;;;;5.78;3.42;;;;;;;-145.70;100.00;63560.63;5050498;28;20025;-59
2023/05/10 06:55:16;;;;;;;6.63;3.38;;;;;;;-145.70;100.00;63560.63;5015688;28;20036;-59
2023/05/10 06:57:44;;;;;;;5.45;3.08;;;;;;;-145.70;100.00;63560.63;5017366;28;20470;-57
2023/05/10 07:00:18;;;;;;;5.30;3.10;;;;;;;-145.70;100.00;63560.63;5045649;28;20064;-60
2023/05/10 07:02:52;;;;;;;6.65;3.45;;;;;;;-145.70;100.00;63560.63;5032748;28;20468;-59
2023/05/10 07:05:43;;;;;;;6.93;3.10;;;;;;;-145.70;100.00;63560.63;5034366;28;20505;-59
2023/05/10 07:08:13;;;;;;;5.75;2.83;;;;;;;-145.70;100.00;63560.63;5023079;28;20056;-59
2023/05/10 07:10:38;;;;;;;6.65;4.03;;;;;;;-145.70;100.00;63560.63;5028880;28;20064;-59
2023/05/10 07:13:06;;;;;;;5.72;3.42;;;;;;;-145.70;100.00;63560.63;5037078;28;20192;-58
2023/05/10 07:15:39;;;;;;;7.28;3.35;;;;;;;-145.70;100.00;63560.63;5030221;28;20036;-61
2023/05/10 07:18:08;;;;;;;7.00;3.80;;;;;;;-145.70;100.00;63560.63;5051030;28;20029;-58
2023/05/10 07:20:34;;;;;;;6.95;3.65;;;;;;;-145.70;100.00;63560.63;5034294;28;20032;-60
2023/05/10 07:22:59;;;;;;;5.60;3.15;;;;;;;-145.70;100.00;63560.63;5028000;28;20036;-59
2023/05/10 07:25:36;;;;;;;7.57;3.78;;;;;;;-145.70;100.00;63560.63;5037070;28;20391;-58
2023/05/10 07:28:01;;;;;;;6.65;4.03;;;;;;;-145.70;100.00;63560.63;5042109;28;20098;-60
2023/05/10 07:30:29;;;;;;;6.63;3.13;;;;;;;-145.70;100.00;63560.63;5036491;28;20590;-59
2023/05/10 07:32:55;;;;;;;7.07;3.53;;;;;;;-145.70;100.00;63560.63;5015035;28;20060;-58
2023/05/10 07:35:20;;;;;;;7.13;3.83;;;;;;;-145.70;100.00;63560.63;5040962;28;20455;-58
2023/05/10 07:37:51;;;;;;;7.20;3.95;;;;;;;-145.70;100.00;63560.63;5029114;28;20040;-58
2023/05/10 07:40:20;;;;;;;5.60;3.45;;;;;;;-145.70;100.00;63560.63;5053773;28;20035;-59
2023/05/10 07:42:48;;;;;;;9.52;3.92;;;;;;;-145.70;100.00;63560.63;5017828;28;20081;-59
2023/05/10 07:45:16;;;;;;;5.65;3.38;;;;;;;-145.70;100.00;63560.63;5033756;28;20094;-59
2023/05/10 07:47:45;;;;;;;6.22;3.58;;;;;;;-145.70;100.00;63560.63;5047220;28;20063;-59
2023/05/10 07:50:14;;;;;;;6.63;3.42;;;;;;;-145.70;100.00;63560.63;5018731;28;20093;-59
2023/05/10 07:52:48;;;;;;;5.90;3.13;;;;;;;-145.70;100.00;63560.63;5038309;28;20171;-59
2023/05/10 07:55:18;;;;;;;6.45;3.20;;;;;;;-145.70;100.00;63560.63;5028790;28;20036;-60
2023/05/10 07:57:47;;;;;;;5.45;3.28;;;;;;;-145.70;100.00;63560.63;5029374;28;20032;-58
2023/05/10 08:00:20;;;;;;;5.63;3.50;;;;;;;-145.70;100.00;63560.63;5044335;28;20094;-59
2023/05/10 08:02:57;;;;;;;5.85;3.50;;;;;;;-145.70;100.00;63560.63;5029398;28;20028;-59
2023/05/10 08:05:28;;;;;;;5.65;3.65;;;;;;;-145.70;100.00;63560.63;5016934;28;20047;-60
2023/05/10 08:07:57;;;;;;;6.10;3.60;;;;;;;-145.70;100.00;63560.63;5046280;28;20045;-59
2023/05/10 08:10:29;;;;;;;6.07;3.80;;;;;;;-145.70;100.00;63560.63;5032313;28;20098;-60
2023/05/10 08:12:54;;;;;;;6.78;3.70;;;;;;;-145.70;100.00;63560.63;5010477;28;20051;-60
2023/05/10 08:15:22;;;;;;;5.97;3.60;;;;;;;-145.70;100.00;63560.63;5023897;28;20476;-59
2023/05/10 08:17:48;;;;;;;5.97;3.65;;;;;;;-145.70;100.00;63560.63;5027186;28;20055;-60
2023/05/10 08:20:20;;;;;;;6.50;3.75;;;;;;;-145.70;100.00;63560.63;5008212;28;20123;-60
2023/05/10 08:22:46;;;;;;;7.07;3.70;;;;;;;-145.70;100.00;63560.63;5032962;28;20674;-60
2023/05/10 08:25:23;;;;;;;7.18;3.72;;;;;;;-145.70;100.00;63560.63;5046625;28;20025;-60
2023/05/10 08:27:48;;;;;;;5.90;3.40;;;;;;;-145.70;100.00;63560.63;5026223;28;20037;-60
2023/05/10 08:30:22;;;;;;;6.80;3.70;;;;;;;-145.70;100.00;63560.63;5007811;28;20566;-60
2023/05/10 08:32:47;;;;;;;5.53;3.30;;;;;;;-145.70;100.00;63560.63;5027524;28;20028;-60
2023/05/10 08:35:17;;;;;;;5.93;3.50;;;;;;;-145.70;100.00;63560.63;5028002;28;20071;-60
2023/05/10 08:37:43;;;;;;;6.35;3.30;;;;;;;-145.70;100.00;63560.63;5013328;28;20856;-59
2023/05/10 08:40:12;;;;;;;7.03;4.00;;;;;;;-145.70;100.00;63560.63;5022718;28;20043;-60
2023/05/10 08:42:45;;;;;;;6.93;3.78;;;;;;;-145.70;100.00;63560.63;5029673;28;20645;-59
2023/05/10 08:45:11;;;;;;;6.35;3.50;;;;;;;-145.70;100.00;63560.63;5032474;28;20028;-59
2023/05/10 08:47:42;;;;;;;6.68;3.00;;;;;;;-145.70;100.00;63560.63;5025193;28;20488;-59
2023/05/10 08:50:15;;;;;;;7.95;3.50;;;;;;;-145.70;100.00;63560.63;5024106;28;20041;-60
2023/05/10 08:52:53;;;;;;;6.53;3.40;;;;;;;-145.70;100.00;63560.63;5048230;28;20556;-59
2023/05/10 08:55:24;;;;;;;5.90;3.60;;;;;;;-145.70;100.00;63560.63;5024231;28;20040;-59
2023/05/10 08:57:53;;;;;;;5.55;3.22;;;;;;;-145.70;100.00;63560.63;5034557;28;20423;-59
2023/05/10 09:00:19;;;;;;;5.47;3.40;;;;;;;-145.70;100.00;63560.63;5022934;28;20477;-59
2023/05/10 09:02:48;;;;;;;6.50;3.30;;;;;;;-145.70;100.00;63560.63;5019959;28;20032;-60
2023/05/10 09:05:15;;;;;;;5.50;3.47;;;;;;;-145.70;100.00;63560.63;5026036;28;20047;-59
2023/05/10 09:07:53;;;;;;;6.18;3.67;;;;;;;-145.70;100.00;63560.63;5021396;28;20043;-60
2023/05/10 09:10:19;;;;;;;5.55;3.15;;;;;;;-145.70;100.00;63560.63;5042601;28;20471;-60
2023/05/10 09:12:47;;;;;;;7.55;3.50;;;;;;;-145.70;100.00;63560.63;5006417;28;20035;-60
2023/05/10 09:15:19;;;;;;;6.45;3.35;;;;;;;-145.70;100.00;63560.63;5018767;28;20021;-59
2023/05/10 09:18:09;;;;;;;5.57;3.42;;;;;;;-145.70;100.00;63560.63;5019300;28;21359;-60
2023/05/10 09:20:37;;;;;;;6.13;3.60;;;;;;;-145.70;100.00;63560.63;5008332;28;20029;-60
2023/05/10 09:23:05;;;;;;;7.35;3.90;;;;;;;-145.70;100.00;63560.63;5009629;28;20043;-60
2023/05/10 09:25:33;;;;;;;7.75;3.83;;;;;;;-145.70;100.00;63560.63;5025254;28;20036;-59
2023/05/10 09:28:05;;;;;;;7.65;3.50;;;;;;;-145.70;100.00;63560.63;5012247;28;20071;-59
2023/05/10 09:30:37;;;;;;;7.78;3.65;;;;;;;-145.70;100.00;63560.63;5012825;28;20421;-60
2023/05/10 09:33:03;;;;;;;7.05;3.92;;;;;;;-145.70;100.00;63560.63;5016018;28;21308;-60
2023/05/10 09:35:30;;;;;;;6.32;4.00;;;;;;;-145.70;100.00;63560.63;5013129;28;20021;-59
2023/05/10 09:38:05;;;;;;;6.78;4.13;;;;;;;-145.70;100.00;63560.63;5024494;28;20037;-59
2023/05/10 09:40:31;;;;;;;7.07;4.65;;;;;;;-145.70;100.00;63560.63;5017374;28;20802;-59
2023/05/10 09:43:16;;;;;;;6.82;4.43;;;;;;;-145.70;100.00;63560.63;5022046;28;20044;-60
2023/05/10 09:45:53;;;;;;;7.07;4.35;;;;;;;-145.70;100.00;63560.63;5048840;28;20563;-59
2023/05/10 09:48:27;;;;;;;7.38;4.50;;;;;;;-145.70;100.00;63560.63;5011564;28;20033;-59
2023/05/10 09:51:18;;;;;;;7.70;4.63;;;;;;;-145.70;100.00;63560.63;5039523;28;20041;-59
2023/05/10 09:53:43;;;;;;;7.75;5.00;;;;;;;-145.70;100.00;63560.63;5054266;28;20390;-59
2023/05/10 09:56:33;;;;;;;7.82;4.75;;;;;;;-145.70;100.00;63560.63;5020045;28;20582;-59
2023/05/10 09:59:03;;;;;;;7.05;4.38;;;;;;;-145.70;100.00;63560.63;5028886;28;20040;-60
2023/05/10 10:01:32;;;;;;;6.72;4.47;;;;;;;-145.70;100.00;63560.63;5054554;28;20072;-59
2023/05/10 10:04:11;;;;;;;7.15;4.53;;;;;;;-145.70;100.00;63560.63;5012970;28;20108;-59
2023/05/10 10:06:38;;;;;;;7.28;4.80;;;;;;;-145.70;100.00;63560.63;5011438;28;20097;-60
2023/05/10 10:09:07;;;;;;;7.72;4.93;;;;;;;-145.70;100.00;63560.63;5053996;28;20040;-59
2023/05/10 10:11:37;;;;;;;7.70;4.80;;;;;;;-145.70;100.00;63560.63;5012467;28;20601;-59
2023/05/10 10:14:11;;;;;;;6.30;3.90;;;;;;;-145.70;100.00;63560.63;5036044;28;20028;-59
2023/05/10 10:16:36;;;;;;;8.32;3.92;;;;;;;-145.70;100.00;63560.63;5034865;28;20020;-63
2023/05/10 10:19:04;;;;;;;6.30;4.07;;;;;;;-145.70;100.00;63560.63;4984470;28;20063;-60
2023/05/10 10:21:33;;;;;;;6.55;4.13;;;;;;;-145.70;100.00;63560.63;5008770;28;20084;-59
2023/05/10 10:24:05;;;;;;;6.50;4.20;;;;;;;-145.70;100.00;63560.63;5016338;28;20036;-60
2023/05/10 10:26:37;;;;;;;6.00;3.95;;;;;;;-145.70;100.00;63560.63;5025282;28;20093;-59
2023/05/10 10:29:18;;;;;;;7.28;3.88;;;;;;;-145.70;100.00;63560.63;5026003;28;20028;-59
2023/05/10 10:32:12;;;;;;;7.15;3.80;;;;;;;-145.70;100.00;63560.63;5024986;28;20028;-59
2023/05/10 10:34:41;;;;;;;6.20;3.67;;;;;;;-145.70;100.00;63560.63;5049590;28;20901;-60
2023/05/10 10:37:10;;;;;;;5.97;3.50;;;;;;;-145.70;100.00;63560.63;5016822;28;20342;-59
2023/05/10 10:39:37;;;;;;;6.47;4.30;;;;;;;-145.70;100.00;63560.63;5032469;28;20039;-60
2023/05/10 10:42:04;;;;;;;6.13;3.55;;;;;;;-145.70;100.00;63560.63;5014728;28;20143;-59
2023/05/10 10:44:30;;;;;;;5.72;3.53;;;;;;;-145.70;100.00;63560.63;5031958;28;20048;-59
2023/05/10 10:47:10;;;;;;;5.30;3.28;;;;;;;-145.70;100.00;63560.63;5004178;28;20053;-59
2023/05/10 10:49:51;;;;;;;5.75;3.65;;;;;;;-145.70;100.00;63560.63;5018758;28;20475;-59
2023/05/10 10:52:40;;;;;;;6.07;3.35;;;;;;;-145.70;100.00;63560.63;4999010;28;20033;-59
2023/05/10 10:55:29;;;;;;;6.83;4.00;;;;;;;-145.70;100.00;63560.63;5001338;28;20033;-59
2023/05/10 10:58:05;;;;;;;6.30;3.90;;;;;;;-145.70;100.00;63560.63;5009848;28;20049;-59
2023/05/10 11:00:40;;;;;;;7.05;3.65;;;;;;;-145.70;100.00;63560.63;5008425;28;20218;-60
2023/05/10 11:03:14;;;;;;;6.88;4.20;;;;;;;-145.70;100.00;63560.63;5011672;28;20971;-59
2023/05/10 11:05:48;;;;;;;6.25;3.97;;;;;;;-145.70;100.00;63560.63;5013712;28;20737;-59
2023/05/10 11:08:33;;;;;;;5.70;3.60;;;;;;;-145.70;100.00;63560.63;5012904;28;20029;-59
2023/05/10 11:11:09;;;;;;;6.82;3.85;;;;;;;-145.70;100.00;63560.63;5011363;28;20029;-59
2023/05/10 11:13:38;;;;;;;5.90;3.70;;;;;;;-145.70;100.00;63560.63;5012749;28;20021;-59
2023/05/10 11:16:45;;;;;;;6.68;3.50;;;;;;;-145.70;100.00;63560.63;5027980;28;20034;-58
2023/05/10 11:19:17;;;;;;;6.10;3.95;;;;;;;-145.70;100.00;63560.63;4920955;28;20091;-59
2023/05/10 11:21:46;;;;;;;6.40;4.30;;;;;;;-145.70;100.00;63560.63;4995520;28;20301;-59
2023/05/10 11:24:38;;;;;;;6.38;4.40;;;;;;;-145.70;100.00;63560.63;5028104;28;20029;-59
2023/05/10 11:27:13;;;;;;;8.18;4.28;;;;;;;-145.70;100.00;63560.63;5008855;28;20418;-59
2023/05/10 11:29:45;;;;;;;8.75;4.55;;;;;;;-145.70;100.00;63560.63;5010723;28;20141;-61
2023/05/10 11:32:10;;;;;;;6.35;4.50;;;;;;;-145.70;100.00;63560.63;5015337;28;20036;-60
2023/05/10 11:34:47;;;;;;;7.65;4.78;;;;;;;-145.70;100.00;63560.63;5017598;28;20025;-59
2023/05/10 11:37:33;;;;;;;7.22;4.20;;;;;;;-145.70;100.00;63560.63;5001185;28;20025;-59
2023/05/10 11:39:59;;;;;;;6.50;4.40;;;;;;;-145.70;100.00;63560.63;4992846;28;20041;-59
2023/05/10 11:42:27;;;;;;;6.18;4.15;;;;;;;-145.70;100.00;63560.63;4998812;28;20171;-60
2023/05/10 11:45:00;;;;;;;6.63;4.30;;;;;;;-145.70;100.00;63560.63;4994359;28;20937;-59
2023/05/10 11:47:29;;;;;;;6.18;4.28;;;;;;;-145.70;100.00;63560.63;5015087;28;20110;-59
2023/05/10 11:50:00;;;;;;;7.57;4.38;;;;;;;-145.70;100.00;63560.63;5015678;28;20045;-59
2023/05/10 11:52:26;;;;;;;6.80;4.43;;;;;;;-145.70;100.00;63560.63;5000445;28;20057;-61
2023/05/10 11:54:55;;;;;;;6.63;3.95;;;;;;;-145.70;100.00;63560.63;5023017;28;20025;-60
2023/05/10 11:57:28;;;;;;;9.20;4.50;;;;;;;-145.70;100.00;63560.63;5032945;28;20091;-60
2023/05/10 12:00:00;;;;;;;8.05;5.03;;;;;;;-145.70;100.00;63560.63;5005321;28;20037;-59
2023/05/10 12:02:36;;;;;;;7.65;5.20;;;;;;;-145.70;100.00;63560.63;5004013;28;20120;-61
2023/05/10 12:05:05;;;;;;;8.98;5.00;;;;;;;-145.70;100.00;63560.63;5020297;28;20553;-60
2023/05/10 12:07:31;;;;;;;8.65;5.07;;;;;;;-145.70;100.00;63560.63;4993062;28;20088;-61